sensor_id;sensor_type;location;lat;lon;timestamp;pressure;altitude;pressure_sealevel;temperature;humidity
39411;BME280;26579;43.238;23.124;2023-02-07T00:01:54;98533.72;;;-0.41;51.21
39411;BME280;26579;43.238;23.124;2023-02-07T00:04:20;98543.88;;;-0.35;51.47
39411;BME280;26579;43.238;23.124;2023-02-07T00:06:46;98540.50;;;-0.37;51.46
39411;BME280;26579;43.238;23.124;2023-02-07T00:09:12;98542.25;;;-0.39;52.06
39411;BME280;26579;43.238;23.124;2023-02-07T00:11:38;98556.72;;;-0.38;52.10
39411;BME280;26579;43.238;23.124;2023-02-07T00:14:04;98542.41;;;-0.53;51.77
39411;BME280;26579;43.238;23.124;2023-02-07T00:16:29;98546.59;;;-0.46;52.45
39411;BME280;26579;43.238;23.124;2023-02-07T00:18:55;98559.38;;;-0.46;51.86
39411;BME280;26579;43.238;23.124;2023-02-07T00:21:22;98561.06;;;-0.43;52.64
39411;BME280;26579;43.238;23.124;2023-02-07T00:23:49;98563.72;;;-0.53;52.23
39411;BME280;26579;43.238;23.124;2023-02-07T00:26:16;98576.50;;;-0.53;53.06
39411;BME280;26579;43.238;23.124;2023-02-07T00:28:44;98555.34;;;-0.64;52.26
39411;BME280;26579;43.238;23.124;2023-02-07T00:33:38;98555.22;;;-0.55;52.97
39411;BME280;26579;43.238;23.124;2023-02-07T00:36:07;98563.75;;;-0.54;53.42
39411;BME280;26579;43.238;23.124;2023-02-07T00:38:33;98566.31;;;-0.54;52.53
39411;BME280;26579;43.238;23.124;2023-02-07T00:41:00;98573.88;;;-0.45;52.88
39411;BME280;26579;43.238;23.124;2023-02-07T00:43:27;98554.31;;;-0.51;53.29
39411;BME280;26579;43.238;23.124;2023-02-07T00:45:53;98565.22;;;-0.38;52.87
39411;BME280;26579;43.238;23.124;2023-02-07T00:48:18;98554.31;;;-0.51;52.62
39411;BME280;26579;43.238;23.124;2023-02-07T00:50:46;98538.19;;;-0.57;52.63
39411;BME280;26579;43.238;23.124;2023-02-07T00:53:11;98551.56;;;-0.34;53.22
39411;BME280;26579;43.238;23.124;2023-02-07T00:55:37;98548.19;;;-0.39;53.03
39411;BME280;26579;43.238;23.124;2023-02-07T00:58:03;98534.56;;;-0.41;53.10
39411;BME280;26579;43.238;23.124;2023-02-07T01:00:29;98545.63;;;-0.39;52.86
39411;BME280;26579;43.238;23.124;2023-02-07T01:02:54;98547.59;;;-0.58;53.27
39411;BME280;26579;43.238;23.124;2023-02-07T01:05:20;98563.78;;;-0.59;53.38
39411;BME280;26579;43.238;23.124;2023-02-07T01:07:46;98558.56;;;-0.48;53.16
39411;BME280;26579;43.238;23.124;2023-02-07T01:10:11;98559.44;;;-0.51;53.47
39411;BME280;26579;43.238;23.124;2023-02-07T01:12:38;98543.38;;;-0.65;53.30
39411;BME280;26579;43.238;23.124;2023-02-07T01:15:05;98546.72;;;-0.58;52.98
39411;BME280;26579;43.238;23.124;2023-02-07T01:17:30;98555.16;;;-0.50;53.51
39411;BME280;26579;43.238;23.124;2023-02-07T01:19:57;98550.09;;;-0.55;53.19
39411;BME280;26579;43.238;23.124;2023-02-07T01:22:24;98526.16;;;-0.51;53.21
39411;BME280;26579;43.238;23.124;2023-02-07T01:24:52;98511.84;;;-0.64;52.88
39411;BME280;26579;43.238;23.124;2023-02-07T01:27:18;98531.31;;;-0.52;53.52
39411;BME280;26579;43.238;23.124;2023-02-07T01:29:44;98550.78;;;-0.40;53.47
39411;BME280;26579;43.238;23.124;2023-02-07T01:32:10;98549.16;;;-0.46;53.07
39411;BME280;26579;43.238;23.124;2023-02-07T01:34:35;98526.19;;;-0.52;53.60
39411;BME280;26579;43.238;23.124;2023-02-07T01:37:02;98547.31;;;-0.38;52.90
39411;BME280;26579;43.238;23.124;2023-02-07T01:39:28;98536.31;;;-0.43;53.30
39411;BME280;26579;43.238;23.124;2023-02-07T01:41:54;98552.59;;;-0.49;53.28
39411;BME280;26579;43.238;23.124;2023-02-07T01:46:52;98536.47;;;-0.57;52.71
39411;BME280;26579;43.238;23.124;2023-02-07T01:49:22;98531.31;;;-0.52;52.55
39411;BME280;26579;43.238;23.124;2023-02-07T01:51:55;98553.50;;;-0.56;52.75
39411;BME280;26579;43.238;23.124;2023-02-07T01:54:24;98552.66;;;-0.56;53.11
39411;BME280;26579;43.238;23.124;2023-02-07T01:56:54;98548.44;;;-0.59;53.77
39411;BME280;26579;43.238;23.124;2023-02-07T01:59:23;98552.75;;;-0.61;53.56
39411;BME280;26579;43.238;23.124;2023-02-07T02:01:50;98541.59;;;-0.55;53.22
39411;BME280;26579;43.238;23.124;2023-02-07T02:04:16;98542.44;;;-0.55;53.36
39411;BME280;26579;43.238;23.124;2023-02-07T02:06:42;98556.84;;;-0.48;53.22
39411;BME280;26579;43.238;23.124;2023-02-07T02:09:13;98559.38;;;-0.48;53.25
39411;BME280;26579;43.238;23.124;2023-02-07T02:17:03;98537.38;;;-0.61;53.86
39411;BME280;26579;43.238;23.124;2023-02-07T02:23:15;98566.38;;;-0.60;54.38
39411;BME280;26579;43.238;23.124;2023-02-07T02:31:44;98571.25;;;-0.40;53.41
39411;BME280;26579;43.238;23.124;2023-02-07T02:34:26;98555.94;;;-0.43;53.97
39411;BME280;26579;43.238;23.124;2023-02-07T02:42:44;98559.47;;;-0.52;54.40
39411;BME280;26579;43.238;23.124;2023-02-07T02:45:23;98559.34;;;-0.44;54.46
39411;BME280;26579;43.238;23.124;2023-02-07T02:47:51;98554.31;;;-0.51;54.52
39411;BME280;26579;43.238;23.124;2023-02-07T02:50:23;98561.94;;;-0.48;55.02
39411;BME280;26579;43.238;23.124;2023-02-07T02:52:49;98544.03;;;-0.48;55.46
39411;BME280;26579;43.238;23.124;2023-02-07T02:55:21;98558.47;;;-0.40;54.28
39411;BME280;26579;43.238;23.124;2023-02-07T02:58:06;98561.09;;;-0.48;54.39
39411;BME280;26579;43.238;23.124;2023-02-07T03:00:55;98555.03;;;-0.39;55.08
39411;BME280;26579;43.238;23.124;2023-02-07T03:08:46;98553.22;;;-0.33;55.26
39411;BME280;26579;43.238;23.124;2023-02-07T03:11:21;98560.22;;;-0.47;54.95
39411;BME280;26579;43.238;23.124;2023-02-07T03:14:02;98561.16;;;-0.51;56.06
39411;BME280;26579;43.238;23.124;2023-02-07T03:16:35;98557.78;;;-0.55;56.00
39411;BME280;26579;43.238;23.124;2023-02-07T03:21:50;98562.03;;;-0.52;56.83
39411;BME280;26579;43.238;23.124;2023-02-07T03:24:23;98555.16;;;-0.50;56.79
39411;BME280;26579;43.238;23.124;2023-02-07T03:26:54;98562.81;;;-0.50;57.16
39411;BME280;26579;43.238;23.124;2023-02-07T03:29:22;98567.91;;;-0.46;57.16
39411;BME280;26579;43.238;23.124;2023-02-07T03:31:52;98558.63;;;-0.56;58.46
39411;BME280;26579;43.238;23.124;2023-02-07T03:34:32;98541.63;;;-0.60;57.65
39411;BME280;26579;43.238;23.124;2023-02-07T03:37:11;98559.34;;;-0.44;57.80
39411;BME280;26579;43.238;23.124;2023-02-07T03:39:39;98555.88;;;-0.39;57.18
39411;BME280;26579;43.238;23.124;2023-02-07T03:42:10;98555.16;;;-0.50;57.86
39411;BME280;26579;43.238;23.124;2023-02-07T03:44:41;98550.84;;;-0.43;58.31
39411;BME280;26579;43.238;23.124;2023-02-07T03:47:07;98543.91;;;-0.38;58.34
39411;BME280;26579;43.238;23.124;2023-02-07T03:49:33;98543.81;;;-0.29;57.14
39411;BME280;26579;43.238;23.124;2023-02-07T03:51:59;98554.13;;;-0.35;56.95
39411;BME280;26579;43.238;23.124;2023-02-07T03:54:25;98548.91;;;-0.29;57.60
39411;BME280;26579;43.238;23.124;2023-02-07T03:56:51;98528.56;;;-0.38;57.80
39411;BME280;26579;43.238;23.124;2023-02-07T03:59:16;98543.81;;;-0.29;57.98
39411;BME280;26579;43.238;23.124;2023-02-07T04:01:42;98548.13;;;-0.33;57.86
39411;BME280;26579;43.238;23.124;2023-02-07T04:04:08;98520.09;;;-0.42;57.59
39411;BME280;26579;43.238;23.124;2023-02-07T04:06:34;98532.75;;;-0.31;57.92
39411;BME280;26579;43.238;23.124;2023-02-07T04:09:00;98537.03;;;-0.33;58.09
39411;BME280;26579;43.238;23.124;2023-02-07T04:11:26;98514.13;;;-0.44;57.53
39411;BME280;26579;43.238;23.124;2023-02-07T04:13:52;98541.31;;;-0.34;57.20
39411;BME280;26579;43.238;23.124;2023-02-07T04:16:17;98538.72;;;-0.32;57.37
39411;BME280;26579;43.238;23.124;2023-02-07T04:18:43;98537.00;;;-0.30;57.26
39411;BME280;26579;43.238;23.124;2023-02-07T04:21:09;98536.91;;;-0.24;56.60
39411;BME280;26579;43.238;23.124;2023-02-07T04:23:35;98535.31;;;-0.31;57.38
39411;BME280;26579;43.238;23.124;2023-02-07T04:26:01;98542.97;;;-0.30;57.42
39411;BME280;26579;43.238;23.124;2023-02-07T04:28:27;98532.84;;;-0.37;57.49
39411;BME280;26579;43.238;23.124;2023-02-07T04:30:53;98535.41;;;-0.39;57.76
39411;BME280;26579;43.238;23.124;2023-02-07T04:33:20;98518.44;;;-0.48;58.51
39411;BME280;26579;43.238;23.124;2023-02-07T04:35:54;98542.31;;;-0.46;58.02
39411;BME280;26579;43.238;23.124;2023-02-07T04:38:20;98527.91;;;-0.54;58.62
39411;BME280;26579;43.238;23.124;2023-02-07T04:40:45;98527.13;;;-0.58;58.29
39411;BME280;26579;43.238;23.124;2023-02-07T04:43:11;98547.50;;;-0.53;58.98
39411;BME280;26579;43.238;23.124;2023-02-07T04:45:37;98552.75;;;-0.61;59.14
39411;BME280;26579;43.238;23.124;2023-02-07T04:48:03;98543.38;;;-0.65;57.24
39411;BME280;26579;43.238;23.124;2023-02-07T04:50:28;98559.44;;;-0.51;56.86
39411;BME280;26579;43.238;23.124;2023-02-07T04:52:54;98555.22;;;-0.55;57.28
39411;BME280;26579;43.238;23.124;2023-02-07T04:55:20;98559.38;;;-0.48;56.76
39411;BME280;26579;43.238;23.124;2023-02-07T04:57:46;98554.47;;;-0.63;57.29
39411;BME280;26579;43.238;23.124;2023-02-07T05:00:11;98570.66;;;-0.62;58.12
39411;BME280;26579;43.238;23.124;2023-02-07T05:02:39;98546.06;;;-0.76;57.27
39411;BME280;26579;43.238;23.124;2023-02-07T05:05:05;98568.13;;;-0.64;56.74
39411;BME280;26579;43.238;23.124;2023-02-07T05:07:31;98575.75;;;-0.62;57.69
39411;BME280;26579;43.238;23.124;2023-02-07T05:09:57;98550.28;;;-0.73;57.39
39411;BME280;26579;43.238;23.124;2023-02-07T05:12:23;98575.69;;;-0.56;56.91
39411;BME280;26579;43.238;23.124;2023-02-07T05:14:48;98576.53;;;-0.56;58.05
39411;BME280;26579;43.238;23.124;2023-02-07T05:17:15;98566.31;;;-0.56;56.72
39411;BME280;26579;43.238;23.124;2023-02-07T05:19:41;98578.97;;;-0.43;56.58
39411;BME280;26579;43.238;23.124;2023-02-07T05:22:08;98579.03;;;-0.47;56.48
39411;BME280;26579;43.238;23.124;2023-02-07T05:24:34;98592.69;;;-0.51;57.06
39411;BME280;26579;43.238;23.124;2023-02-07T05:27:00;98587.59;;;-0.52;56.99
39411;BME280;26579;43.238;23.124;2023-02-07T05:29:25;98571.53;;;-0.65;56.73
39411;BME280;26579;43.238;23.124;2023-02-07T05:31:51;98591.97;;;-0.60;57.60
39411;BME280;26579;43.238;23.124;2023-02-07T05:34:17;98595.25;;;-0.49;55.99
39411;BME280;26579;43.238;23.124;2023-02-07T05:36:42;98595.31;;;-0.55;56.56
39411;BME280;26579;43.238;23.124;2023-02-07T05:39:08;98597.00;;;-0.56;56.09
39411;BME280;26579;43.238;23.124;2023-02-07T05:41:34;98592.78;;;-0.60;56.47
39411;BME280;26579;43.238;23.124;2023-02-07T05:44:00;98602.13;;;-0.56;55.59
39411;BME280;26579;43.238;23.124;2023-02-07T05:46:26;98616.72;;;-0.67;56.11
39411;BME280;26579;43.238;23.124;2023-02-07T05:48:51;98626.06;;;-0.61;55.63
39411;BME280;26579;43.238;23.124;2023-02-07T05:51:17;98616.72;;;-0.67;56.38
39411;BME280;26579;43.238;23.124;2023-02-07T05:53:43;98607.44;;;-0.74;56.16
39411;BME280;26579;43.238;23.124;2023-02-07T05:56:08;98630.47;;;-0.73;56.34
39411;BME280;26579;43.238;23.124;2023-02-07T05:58:34;98621.06;;;-0.72;55.83
39411;BME280;26579;43.238;23.124;2023-02-07T06:01:00;98630.44;;;-0.71;55.81
39411;BME280;26579;43.238;23.124;2023-02-07T06:03:25;98618.56;;;-0.80;55.85
39411;BME280;26579;43.238;23.124;2023-02-07T06:05:51;98624.47;;;-0.73;55.33
39411;BME280;26579;43.238;23.124;2023-02-07T06:08:17;98619.44;;;-0.82;54.87
39411;BME280;26579;43.238;23.124;2023-02-07T06:10:42;98611.06;;;-0.97;55.47
39411;BME280;26579;43.238;23.124;2023-02-07T06:13:08;98637.38;;;-0.84;55.61
39411;BME280;26579;43.238;23.124;2023-02-07T06:15:34;98638.16;;;-0.79;55.53
39411;BME280;26579;43.238;23.124;2023-02-07T06:17:59;98644.97;;;-0.75;55.63
39411;BME280;26579;43.238;23.124;2023-02-07T06:20:25;98636.47;;;-0.80;55.79
39411;BME280;26579;43.238;23.124;2023-02-07T06:22:51;98636.44;;;-0.77;56.14
39411;BME280;26579;43.238;23.124;2023-02-07T06:25:17;98646.69;;;-0.75;56.31
39411;BME280;26579;43.238;23.124;2023-02-07T06:27:44;98648.34;;;-0.70;56.55
39411;BME280;26579;43.238;23.124;2023-02-07T06:30:10;98647.47;;;-0.69;56.72
39411;BME280;26579;43.238;23.124;2023-02-07T06:32:36;98630.56;;;-0.83;56.22
39411;BME280;26579;43.238;23.124;2023-02-07T06:35:02;98647.50;;;-0.73;56.40
39411;BME280;26579;43.238;23.124;2023-02-07T06:37:28;98630.47;;;-0.74;55.80
39411;BME280;26579;43.238;23.124;2023-02-07T06:39:53;98649.06;;;-0.61;55.83
39411;BME280;26579;43.238;23.124;2023-02-07T06:42:19;98638.03;;;-0.65;55.42
39411;BME280;26579;43.238;23.124;2023-02-07T06:44:44;98640.53;;;-0.59;55.17
39411;BME280;26579;43.238;23.124;2023-02-07T06:47:10;98643.00;;;-0.50;55.46
39411;BME280;26579;43.238;23.124;2023-02-07T06:49:36;98645.44;;;-0.37;54.92
39411;BME280;26579;43.238;23.124;2023-02-07T06:52:02;98651.31;;;-0.29;55.45
39411;BME280;26579;43.238;23.124;2023-02-07T06:54:27;98635.91;;;-0.25;55.19
39411;BME280;26579;43.238;23.124;2023-02-07T06:56:53;98646.03;;;-0.14;54.79
39411;BME280;26579;43.238;23.124;2023-02-07T06:59:19;98649.19;;;0.05;54.54
39411;BME280;26579;43.238;23.124;2023-02-07T07:01:44;98645.50;;;0.26;52.92
39411;BME280;26579;43.238;23.124;2023-02-07T07:04:10;98647.94;;;0.37;53.29
39411;BME280;26579;43.238;23.124;2023-02-07T07:06:36;98636.81;;;0.39;53.34
39411;BME280;26579;43.238;23.124;2023-02-07T07:09:03;98643.59;;;0.40;53.57
39411;BME280;26579;43.238;23.124;2023-02-07T07:11:29;98655.34;;;0.55;53.05
39411;BME280;26579;43.238;23.124;2023-02-07T07:13:55;98629.81;;;0.51;52.93
39411;BME280;26579;43.238;23.124;2023-02-07T07:16:20;98651.06;;;0.59;53.19
39411;BME280;26579;43.238;23.124;2023-02-07T07:18:46;98633.25;;;0.50;53.71
39411;BME280;26579;43.238;23.124;2023-02-07T07:21:12;98643.75;;;0.31;53.81
39411;BME280;26579;43.238;23.124;2023-02-07T07:23:38;98650.13;;;-0.01;54.99
39411;BME280;26579;43.238;23.124;2023-02-07T07:26:04;98633.28;;;-0.18;54.92
39411;BME280;26579;43.238;23.124;2023-02-07T07:28:30;98652.00;;;-0.13;54.84
39411;BME280;26579;43.238;23.124;2023-02-07T07:31:01;98653.59;;;-0.05;54.92
39411;BME280;26579;43.238;23.124;2023-02-07T07:33:27;98655.25;;;-0.01;54.59
39411;BME280;26579;43.238;23.124;2023-02-07T07:36:00;98647.75;;;-0.14;54.20
39411;BME280;26579;43.238;23.124;2023-02-07T07:38:26;98667.38;;;-0.18;54.63
39411;BME280;26579;43.238;23.124;2023-02-07T07:40:52;98663.13;;;-0.16;54.32
39411;BME280;26579;43.238;23.124;2023-02-07T07:43:18;98665.63;;;-0.13;54.84
39411;BME280;26579;43.238;23.124;2023-02-07T07:45:52;98670.94;;;-0.28;54.18
39411;BME280;26579;43.238;23.124;2023-02-07T07:48:19;98649.72;;;-0.39;53.81
39411;BME280;26579;43.238;23.124;2023-02-07T07:50:45;98661.50;;;-0.23;54.30
39411;BME280;26579;43.238;23.124;2023-02-07T07:53:10;98656.16;;;-0.05;54.12
39411;BME280;26579;43.238;23.124;2023-02-07T07:55:36;98667.81;;;0.19;53.54
39411;BME280;26579;43.238;23.124;2023-02-07T07:58:02;98674.56;;;0.27;53.54
39411;BME280;26579;43.238;23.124;2023-02-07T08:00:27;98673.59;;;0.34;53.26
39411;BME280;26579;43.238;23.124;2023-02-07T08:02:53;98670.94;;;0.40;52.44
39411;BME280;26579;43.238;23.124;2023-02-07T08:05:19;98656.50;;;0.36;51.57
39411;BME280;26579;43.238;23.124;2023-02-07T08:07:45;98673.28;;;0.57;51.27
39411;BME280;26579;43.238;23.124;2023-02-07T08:10:10;98654.50;;;0.55;51.64
39411;BME280;26579;43.238;23.124;2023-02-07T08:12:36;98666.22;;;0.74;51.42
39411;BME280;26579;43.238;23.124;2023-02-07T08:15:02;98673.13;;;1.71;49.34
39411;BME280;26579;43.238;23.124;2023-02-07T08:17:28;98657.97;;;2.04;49.15
39411;BME280;26579;43.238;23.124;2023-02-07T08:19:53;98650.69;;;2.24;47.80
39411;BME280;26579;43.238;23.124;2023-02-07T08:22:19;98642.25;;;2.94;44.00
39411;BME280;26579;43.238;23.124;2023-02-07T08:24:44;98637.91;;;2.96;43.78
39411;BME280;26579;43.238;23.124;2023-02-07T08:27:13;98647.97;;;4.33;41.03
39411;BME280;26579;43.238;23.124;2023-02-07T08:29:39;98647.31;;;5.86;38.18
39411;BME280;26579;43.238;23.124;2023-02-07T08:32:05;98643.34;;;7.14;34.40
39411;BME280;26579;43.238;23.124;2023-02-07T08:34:30;98634.66;;;8.15;32.75
39411;BME280;26579;43.238;23.124;2023-02-07T08:36:56;98635.81;;;9.55;31.51
39411;BME280;26579;43.238;23.124;2023-02-07T08:39:22;98638.84;;;10.93;29.39
39411;BME280;26579;43.238;23.124;2023-02-07T08:41:47;98620.94;;;12.35;27.59
39411;BME280;26579;43.238;23.124;2023-02-07T08:44:13;98627.19;;;12.32;26.15
39411;BME280;26579;43.238;23.124;2023-02-07T08:46:39;98618.34;;;12.62;25.46
39411;BME280;26579;43.238;23.124;2023-02-07T08:49:04;98616.25;;;13.74;24.30
39411;BME280;26579;43.238;23.124;2023-02-07T08:51:30;98619.59;;;14.64;24.18
39411;BME280;26579;43.238;23.124;2023-02-07T08:53:56;98615.91;;;15.50;22.64
39411;BME280;26579;43.238;23.124;2023-02-07T08:56:21;98615.59;;;16.67;21.33
39411;BME280;26579;43.238;23.124;2023-02-07T08:58:47;98627.91;;;15.06;21.61
39411;BME280;26579;43.238;23.124;2023-02-07T09:01:13;98631.31;;;14.71;22.38
39411;BME280;26579;43.238;23.124;2023-02-07T09:03:38;98630.09;;;14.64;22.91
39411;BME280;26579;43.238;23.124;2023-02-07T09:06:04;98630.41;;;15.31;22.25
39411;BME280;26579;43.238;23.124;2023-02-07T09:08:30;98627.94;;;15.99;21.09
39411;BME280;26579;43.238;23.124;2023-02-07T09:10:56;98628.38;;;15.00;22.10
39411;BME280;26579;43.238;23.124;2023-02-07T09:13:22;98622.06;;;14.78;22.33
39411;BME280;26579;43.238;23.124;2023-02-07T09:15:57;98624.94;;;13.62;22.70
39411;BME280;26579;43.238;23.124;2023-02-07T09:18:24;98631.09;;;13.99;22.35
39411;BME280;26579;43.238;23.124;2023-02-07T09:20:51;98615.16;;;14.27;22.71
39411;BME280;26579;43.238;23.124;2023-02-07T09:23:16;98607.50;;;15.69;21.20
39411;BME280;26579;43.238;23.124;2023-02-07T09:25:43;98617.13;;;16.81;20.63
39411;BME280;26579;43.238;23.124;2023-02-07T09:28:08;98617.88;;;15.70;20.42
39411;BME280;26579;43.238;23.124;2023-02-07T09:30:34;98622.13;;;16.18;20.58
39411;BME280;26579;43.238;23.124;2023-02-07T09:33:00;98625.06;;;16.02;20.81
39411;BME280;26579;43.238;23.124;2023-02-07T09:35:26;98620.72;;;16.68;19.98
39411;BME280;26579;43.238;23.124;2023-02-07T09:37:53;98607.34;;;16.60;19.73
39411;BME280;26579;43.238;23.124;2023-02-07T09:40:20;98606.09;;;15.87;20.29
39411;BME280;26579;43.238;23.124;2023-02-07T09:43:11;98622.09;;;15.95;19.98
39411;BME280;26579;43.238;23.124;2023-02-07T09:45:41;98631.69;;;15.61;20.16
39411;BME280;26579;43.238;23.124;2023-02-07T09:48:20;98633.31;;;14.67;21.38
39411;BME280;26579;43.238;23.124;2023-02-07T09:50:53;98620.41;;;15.83;20.57
39411;BME280;26579;43.238;23.124;2023-02-07T09:53:40;98620.13;;;14.93;20.88
39411;BME280;26579;43.238;23.124;2023-02-07T09:56:08;98607.66;;;16.01;20.84
39411;BME280;26579;43.238;23.124;2023-02-07T09:58:41;98605.31;;;14.68;21.62
39411;BME280;26579;43.238;23.124;2023-02-07T10:01:14;98604.25;;;15.65;20.72
39411;BME280;26579;43.238;23.124;2023-02-07T10:03:48;98613.59;;;14.99;20.82
39411;BME280;26579;43.238;23.124;2023-02-07T10:06:21;98610.16;;;15.09;21.83
39411;BME280;26579;43.238;23.124;2023-02-07T10:08:53;98598.34;;;14.56;22.04
39411;BME280;26579;43.238;23.124;2023-02-07T10:19:41;98581.31;;;15.45;21.96
39411;BME280;26579;43.238;23.124;2023-02-07T10:22:30;98566.94;;;14.91;21.22
39411;BME280;26579;43.238;23.124;2023-02-07T10:25:13;98584.53;;;13.66;22.41
39411;BME280;26579;43.238;23.124;2023-02-07T10:30:34;98571.41;;;14.54;22.02
39411;BME280;26579;43.238;23.124;2023-02-07T10:33:15;98580.56;;;13.07;22.91
39411;BME280;26579;43.238;23.124;2023-02-07T10:35:43;98581.47;;;12.39;23.98
39411;BME280;26579;43.238;23.124;2023-02-07T10:38:21;98581.06;;;11.75;25.22
39411;BME280;26579;43.238;23.124;2023-02-07T10:40:56;98574.53;;;12.11;25.04
39411;BME280;26579;43.238;23.124;2023-02-07T10:43:27;98578.47;;;10.55;26.66
39411;BME280;26579;43.238;23.124;2023-02-07T10:46:09;98575.72;;;9.44;28.04
39411;BME280;26579;43.238;23.124;2023-02-07T10:48:36;98570.03;;;9.86;28.22
39411;BME280;26579;43.238;23.124;2023-02-07T10:51:05;98553.09;;;9.62;27.93
39411;BME280;26579;43.238;23.124;2023-02-07T10:53:45;98551.25;;;9.13;28.84
39411;BME280;26579;43.238;23.124;2023-02-07T10:56:17;98550.25;;;8.64;30.00
39411;BME280;26579;43.238;23.124;2023-02-07T10:58:44;98530.41;;;8.63;30.24
39411;BME280;26579;43.238;23.124;2023-02-07T11:01:24;98544.50;;;9.11;30.03
39411;BME280;26579;43.238;23.124;2023-02-07T11:03:51;98534.84;;;8.95;29.69
39411;BME280;26579;43.238;23.124;2023-02-07T11:06:27;98546.66;;;9.36;31.10
39411;BME280;26579;43.238;23.124;2023-02-07T11:09:11;98538.22;;;8.97;29.44
39411;BME280;26579;43.238;23.124;2023-02-07T11:11:37;98538.88;;;8.83;30.63
39411;BME280;26579;43.238;23.124;2023-02-07T11:14:05;98523.59;;;8.77;29.99
39411;BME280;26579;43.238;23.124;2023-02-07T11:16:31;98525.75;;;8.33;29.92
39411;BME280;26579;43.238;23.124;2023-02-07T11:19:05;98527.84;;;8.25;30.55
39411;BME280;26579;43.238;23.124;2023-02-07T11:21:42;98527.91;;;8.42;31.54
39411;BME280;26579;43.238;23.124;2023-02-07T11:26:59;98521.00;;;8.24;30.87
39411;BME280;26579;43.238;23.124;2023-02-07T11:29:25;98526.88;;;8.27;30.56
39411;BME280;26579;43.238;23.124;2023-02-07T11:31:53;98524.41;;;8.24;30.39
39411;BME280;26579;43.238;23.124;2023-02-07T11:36:52;98525.16;;;8.09;31.30
39411;BME280;26579;43.238;23.124;2023-02-07T11:39:20;98513.91;;;8.08;30.58
39411;BME280;26579;43.238;23.124;2023-02-07T11:41:59;98509.09;;;7.82;30.86
39411;BME280;26579;43.238;23.124;2023-02-07T11:44:27;98514.19;;;7.64;31.87
39411;BME280;26579;43.238;23.124;2023-02-07T11:46:56;98508.75;;;7.31;31.66
39411;BME280;26579;43.238;23.124;2023-02-07T11:52:02;98510.16;;;7.78;31.64
39411;BME280;26579;43.238;23.124;2023-02-07T11:54:29;98514.97;;;7.27;31.87
39411;BME280;26579;43.238;23.124;2023-02-07T11:57:09;98503.72;;;7.47;31.82
39411;BME280;26579;43.238;23.124;2023-02-07T11:59:47;98492.81;;;7.40;32.57
39411;BME280;26579;43.238;23.124;2023-02-07T12:02:24;98500.22;;;7.29;32.07
39411;BME280;26579;43.238;23.124;2023-02-07T12:04:52;98481.53;;;6.82;32.39
39411;BME280;26579;43.238;23.124;2023-02-07T12:07:22;98493.03;;;6.95;32.39
39411;BME280;26579;43.238;23.124;2023-02-07T12:09:55;98484.75;;;6.46;32.73
39411;BME280;26579;43.238;23.124;2023-02-07T12:12:47;98490.78;;;6.67;32.96
39411;BME280;26579;43.238;23.124;2023-02-07T12:20:54;98483.72;;;7.11;32.15
39411;BME280;26579;43.238;23.124;2023-02-07T12:26:13;98487.75;;;7.37;32.29
39411;BME280;26579;43.238;23.124;2023-02-07T12:28:58;98485.88;;;7.41;32.05
39411;BME280;26579;43.238;23.124;2023-02-07T12:31:46;98479.69;;;7.24;31.13
39411;BME280;26579;43.238;23.124;2023-02-07T12:34:20;98469.38;;;7.04;31.69
39411;BME280;26579;43.238;23.124;2023-02-07T12:36:51;98470.72;;;7.13;31.74
39411;BME280;26579;43.238;23.124;2023-02-07T12:39:26;98470.50;;;7.57;32.09
39411;BME280;26579;43.238;23.124;2023-02-07T12:45:04;98487.34;;;7.46;31.61
39411;BME280;26579;43.238;23.124;2023-02-07T12:47:56;98484.13;;;7.02;31.68
39411;BME280;26579;43.238;23.124;2023-02-07T12:53:47;98481.16;;;6.70;33.40
39411;BME280;26579;43.238;23.124;2023-02-07T12:56:38;98483.03;;;6.87;33.07
39411;BME280;26579;43.238;23.124;2023-02-07T12:59:21;98485.59;;;7.08;32.31
39411;BME280;26579;43.238;23.124;2023-02-07T13:05:21;98472.72;;;6.86;32.88
39411;BME280;26579;43.238;23.124;2023-02-07T13:08:05;98457.56;;;6.56;33.00
39411;BME280;26579;43.238;23.124;2023-02-07T13:24:54;98487.00;;;6.11;35.66
39411;BME280;26579;43.238;23.124;2023-02-07T13:27:22;98480.41;;;6.24;35.54
39411;BME280;26579;43.238;23.124;2023-02-07T13:29:51;98489.19;;;6.42;34.77
39411;BME280;26579;43.238;23.124;2023-02-07T13:32:22;98507.56;;;5.67;34.21
39411;BME280;26579;43.238;23.124;2023-02-07T13:34:54;98499.66;;;5.72;35.46
39411;BME280;26579;43.238;23.124;2023-02-07T13:37:50;98502.56;;;5.86;35.25
39411;BME280;26579;43.238;23.124;2023-02-07T13:43:13;98497.25;;;5.43;35.08
39411;BME280;26579;43.238;23.124;2023-02-07T13:48:31;98494.03;;;5.37;35.48
39411;BME280;26579;43.238;23.124;2023-02-07T13:56:58;98479.91;;;5.93;34.24
39411;BME280;26579;43.238;23.124;2023-02-07T13:59:38;98485.16;;;5.91;33.97
39411;BME280;26579;43.238;23.124;2023-02-07T14:02:05;98476.31;;;5.51;34.88
39411;BME280;26579;43.238;23.124;2023-02-07T14:04:54;98482.91;;;5.35;35.25
39411;BME280;26579;43.238;23.124;2023-02-07T14:07:31;98472.34;;;5.41;34.67
39411;BME280;26579;43.238;23.124;2023-02-07T14:09:57;98482.59;;;5.44;34.08
39411;BME280;26579;43.238;23.124;2023-02-07T14:14:49;98483.53;;;5.88;34.50
39411;BME280;26579;43.238;23.124;2023-02-07T14:19:57;98483.34;;;5.93;33.67
39411;BME280;26579;43.238;23.124;2023-02-07T14:22:28;98473.78;;;5.73;34.79
39411;BME280;26579;43.238;23.124;2023-02-07T14:30:29;98479.91;;;5.93;34.83
39411;BME280;26579;43.238;23.124;2023-02-07T14:33:35;98494.56;;;5.92;33.81
39411;BME280;26579;43.238;23.124;2023-02-07T14:36:18;98493.03;;;5.64;35.02
39411;BME280;26579;43.238;23.124;2023-02-07T14:41:43;98483.44;;;5.44;35.76
39411;BME280;26579;43.238;23.124;2023-02-07T14:44:35;98495.53;;;5.89;35.48
39411;BME280;26579;43.238;23.124;2023-02-07T14:47:03;98489.72;;;6.08;34.97
39411;BME280;26579;43.238;23.124;2023-02-07T14:49:41;98499.69;;;6.17;34.84
39411;BME280;26579;43.238;23.124;2023-02-07T14:54:52;98496.00;;;5.77;35.06
39411;BME280;26579;43.238;23.124;2023-02-07T15:02:42;98503.72;;;4.82;35.96